ESGG/GOT METAR and TAF weather

Enter ICAO airport designator
Station Type Date Time Source
ESGG METAR 2019/05/27 08:50 UTC NOAA

ESGG 270850Z 23008KT 2200 -DZ BKN005 OVC014 08/07 Q0999


Station Type Date Time Source
ESGG Decoded METAR 2019/05/27 08:50 UTC NOAA

Goteborg / Landvetter, Sweden (ESGG) 57-40N 012-18E
May 27, 2019 - 04:50 AM EDT / 2019.05.27 0850 UTC
Wind: from the SW (230 degrees) at 9 MPH (8 KT):0
Visibility: 1 mile(s):0
Sky conditions: overcast
Weather: light drizzle
Temperature: 46 F (8 C)
Dew Point: 44 F (7 C)
Relative Humidity: 93%
Pressure (altimeter): 29.50 in. Hg (0999 hPa)
ob: ESGG 270850Z 23008KT 2200 -DZ BKN005 OVC014 08/07 Q0999
cycle: 9

Station Type Date Time Source
ESGG TAF 2019/05/27 08:57 UTC NOAA

TAF
AMD TAF
AMD ESGG 270853Z 2708/2806 25008KT 9999 SCT006 BKN020 PROB40 2709/2712 2500 -RADZ BKN005 PROB40 2712/2715 BKN010
TEMPO 2715/2806 SHRA BKN014CB

Example: see airport list